Villa La Marina, Puerto Rico
Current Conditions -  °F | °C
As of 11:56 AM on Thursday 29 Jan 2015 (Local Time) from TJSJ Reporting Station
Scattered Clouds Scattered Clouds  
Wind Chill: 83°   Ceiling: Unl
Heat Index: 88°   Visibility: 10mi
Dew Point: 72°   Wind: 13mph
Humidity: 69%   Direction: 50°NE
Pressure: 30.03"   Gusts: NA
Location:  18.4048°N, 65.9789°W
Report Text: TJSJ 291556Z 05011KT 10SM FEW028 SCT080 28/22 A3003 RMK AO2 SLP169 T02830222
Loading
Personal Weather Stations






























Interactive Weather Map New forecast layout! Learn more

10-Day Weather Forecast

Advertisements
Track Severe Weather on mobile